Home > Products > Valid Products > TAF

000
FTUS44 KAMA 231400 AAB
TAFGUY
TAF AMD
KGUY 231400Z 2314/2412 VRB03KT 5SM BR BKN012
      TEMPO 2314/2315 1/4SM FG OVC003
     FM231500 16006KT P6SM BKN025
     FM231700 16011KT P6SM SCT050=



000
FTUS44 KAMA 231300 AAA
TAFGUY
TAF AMD
KGUY 231301Z 2313/2412 VRB03KT 5SM BR BKN012
      TEMPO 2313/2315 1 1/2SM BR BKN005
     FM231500 16006KT P6SM BKN025
     FM231700 16011KT P6SM SCT050=



000
FTUS44 KAMA 231200 AAA
TAFAMA
TAF AMD
KAMA 231226Z 2312/2412 21005KT 6SM BR BKN015
      TEMPO 2312/2315 5SM BR OVC006
     FM231700 18011KT P6SM FEW050=



000
FTUS44 KAMA 231100
TAFAMA
TAF
KAMA 231129Z 2312/2412 21005KT 5SM BR BKN011
     FM231700 18011KT P6SM FEW050=



000
FTUS44 KAMA 231100
TAFDHT
TAF
KDHT 231129Z 2312/2412 VRB04KT 1/4SM FG VV002
     FM231500 18005KT 4SM BR SCT030
     FM231700 24010KT P6SM FEW050=



000
FTUS44 KAMA 231100
TAFGUY
TAF
KGUY 231129Z 2312/2412 VRB03KT 1/2SM FG VV004
      TEMPO 2312/2315 1/4SM FG
     FM231500 16006KT P6SM BKN011
     FM231700 16011KT P6SM SCT050=



000
FTUS44 KAMA 231000 AAB
TAFAMA
TAF AMD
KAMA 231039Z 2311/2406 VRB03KT 5SM BR BKN011
     FM231700 19012KT P6SM SCT035=



000
FTUS44 KAMA 230900 AAB
TAFDHT
TAF AMD
KDHT 230916Z 2309/2406 VRB03KT 1SM BR VV002
      TEMPO 2309/2313 1/2SM FG
     FM231700 19010KT P6SM SCT035=



000
FTUS44 KAMA 230800 AAB
TAFGUY
TAF AMD
KGUY 230855Z 2309/2406 VRB03KT 1/2SM FG FEW015
      TEMPO 2309/2313 1/4SM FG
     FM231600 17008KT P6SM SCT035=



000
FTUS44 KAMA 230800 AAA
TAFGUY
TAF AMD
KGUY 230803Z 2308/2406 VRB03KT 4SM BR SCT100
     FM231000 VRB03KT 2SM BR FEW100
     FM231600 17008KT P6SM SCT035=



000
FTUS44 KAMA 230700 AAA
TAFDHT
TAF AMD
KDHT 230723Z 2307/2406 18007KT 2SM BR FEW008
     FM231000 VRB03KT 1SM BR FEW150
     FM231700 19010KT P6SM SCT035=



000
FTUS44 KAMA 230700 AAA
TAFAMA
TAF AMD
KAMA 230718Z 2307/2406 18011KT 4SM BR BKN015
     FM231000 VRB03KT 1SM BR FEW006
     FM231700 19012KT P6SM SCT035=



000
FTUS44 KAMA 230500 RRA
TAFDHT
TAF
KDHT 230542Z 2306/2406 18007KT 4SM BR FEW008
     FM231000 VRB03KT 2SM BR FEW150
     FM231700 19010KT P6SM SCT035=



000
FTUS44 KAMA 230500 RRA
TAFGUY
TAF
KGUY 230542Z 2306/2406 19011KT 6SM BR SCT012
     FM230700 VRB03KT 2SM BR SCT100
     FM231600 17008KT P6SM SCT035=



000
FTUS44 KAMA 230500 RRA
TAFAMA
TAF
KAMA 230542Z 2306/2406 18011KT 4SM BR BKN008
     FM231000 VRB03KT 1SM BR FEW006
     FM231700 19012KT P6SM SCT035=



000
FTUS44 KAMA 230400 AAB
TAFGUY
TAF AMD
KGUY 230414Z 2304/2324 19011KT P6SM SCT010
      TEMPO 2304/2307 BKN010
     FM230700 VRB03KT 2SM BR SCT100
     FM231600 16007KT P6SM FEW250=



000
FTUS44 KAMA 230400 AAB
TAFGUY
TAF AMD
KGUY 230414Z 2304/2324 19011KT P6SM SCT010
      TEMPO 2304/2307 BKN010
     FM230700 VRB03KT 2SM BR SCT100
     FM231600 16007KT P6SM FEW250=



000
FTUS44 KAMA 230400 AAD
TAFAMA
TAF AMD
KAMA 230411Z 2304/2324 16013KT 6SM BR OVC009
     FM230600 18009KT 3SM BR BKN010
     FM230800 VRB03KT 1SM BR SCT150
     FM231600 21010KT P6SM FEW250=



000
FTUS44 KAMA 230200 AAA
TAFGUY
TAF AMD
KGUY 230225Z 2302/2324 17011KT P6SM SCT050
     FM230700 VRB03KT 2SM BR SCT100
     FM231600 16007KT P6SM FEW250=



000
FTUS44 KAMA 230200 AAC
TAFAMA
TAF AMD
KAMA 230220Z 2302/2324 14013KT 6SM BR BKN010
     FM230400 18009KT 3SM BR SCT150
     FM230800 VRB03KT 1SM BR SCT150
     FM231600 21010KT P6SM FEW250=



000
FTUS44 KAMA 230200 AAC
TAFAMA
TAF AMD
KAMA 230220Z 2302/2324 14013KT 6SM BR BKN010
     FM230400 18009KT 3SM BR SCT150
     FM230800 VRB03KT 1SM BR SCT150
     FM231600 21010KT P6SM FEW250=



000
FTUS44 KAMA 230100 AAB
TAFAMA
TAF AMD
KAMA 230157Z 2302/2324 14013KT 6SM BR VCTS BKN010CB
      TEMPO 2302/2304 -TSRA BKN006CB
     FM230400 18009KT 3SM BR SCT150
     FM230800 VRB03KT 1SM BR SCT150
     FM231600 21010KT P6SM FEW250=



000
FTUS44 KAMA 230100 AAB
TAFAMA
TAF AMD
KAMA 230157Z 2302/2324 14013KT 6SM BR VCTS BKN010CB
      TEMPO 2302/2304 -TSRA BKN006CB
     FM230400 18009KT 3SM BR SCT150
     FM230800 VRB03KT 1SM BR SCT150
     FM231600 21010KT P6SM FEW250=



000
FTUS44 KAMA 230000 AAA
TAFAMA
TAF AMD
KAMA 230046Z 2301/2324 14013KT 6SM BR SCT005
     FM230400 18009KT 3SM BR SCT150
     FM230800 VRB03KT 1SM BR SCT150
     FM231600 21010KT P6SM FEW250=



000
FTUS44 KAMA 230000 AAA
TAFAMA
TAF AMD
KAMA 230046Z 2301/2324 14013KT 6SM BR SCT005
     FM230400 18009KT 3SM BR SCT150
     FM230800 VRB03KT 1SM BR SCT150
     FM231600 21010KT P6SM FEW250=



000
FTUS44 KAMA 222300 AAA
TAFAMA
TAF AMD
KAMA 222352Z 2300/2324 14013KT 4SM BR VCTS BKN005CB
     FM230400 18009KT 3SM BR SCT150
     FM230800 VRB03KT 1SM BR SCT150
     FM231600 21010KT P6SM FEW250=



000
FTUS44 KAMA 222300 AAA
TAFAMA
TAF AMD
KAMA 222352Z 2300/2324 14013KT 4SM BR VCTS BKN005CB
     FM230400 18009KT 3SM BR SCT150
     FM230800 VRB03KT 1SM BR SCT150
     FM231600 21010KT P6SM FEW250=



000
FTUS44 KAMA 222300 AAA
TAFAMA
TAF AMD
KAMA 222334Z 2300/2324 14013KT P6SM VCSH BKN006
     FM230400 18009KT 3SM BR SCT150
     FM230800 VRB03KT 1SM BR SCT150
     FM231600 21010KT P6SM FEW250=



000
FTUS44 KAMA 222300
TAFGUY
TAF
KGUY 222320Z 2300/2324 17008KT P6SM SCT050
     FM230700 VRB03KT 2SM BR SCT100
     FM231600 16007KT P6SM FEW250=



000
FTUS44 KAMA 222300
TAFDHT
TAF
KDHT 222320Z 2300/2324 16008KT P6SM SCT050
     FM230800 VRB03KT 2SM BR SCT150
     FM231600 20005KT P6SM FEW250=



000
FTUS44 KAMA 222300
TAFAMA
TAF
KAMA 222320Z 2300/2324 14013KT P6SM VCSH BKN060
     FM230400 18009KT 3SM BR SCT150
     FM230800 VRB03KT 1SM BR SCT150
     FM231600 21010KT P6SM FEW250=



000
FTUS44 KAMA 221900 AAB
TAFAMA
TAF AMD
KAMA 221957Z 2220/2318 19015KT P6SM VCSH SCT025 BKN040
      TEMPO 2220/2222 5SM -TSRA BKN025CB
     FM222300 17013KT P6SM BKN040
     FM230400 18009KT 4SM BR SCT150
     FM230800 19007KT 2SM BR SCT150
     FM231600 21010KT P6SM FEW250=



000
FTUS44 KAMA 221900 AAA
TAFAMA
TAF AMD
KAMA 221947Z 2220/2318 19015KT P6SM SCT025 BKN040
      TEMPO 2220/2222 BKN025
     FM222300 17013KT P6SM BKN040
     FM230400 18009KT 4SM BR SCT150
     FM230800 19007KT 2SM BR SCT150
     FM231600 21010KT P6SM FEW250=



000
FTUS44 KAMA 221700
TAFGUY
TAF
KGUY 221738Z 2218/2318 19015KT P6SM BKN040
     FM230000 17008KT P6SM SCT050
     FM230700 20005KT 2SM BR SCT100
     FM231600 16007KT P6SM FEW250=



000
FTUS44 KAMA 221700
TAFAMA
TAF
KAMA 221738Z 2218/2318 19015KT P6SM VCSH SCT008 BKN015
      TEMPO 2218/2219 BKN008
     FM222100 17014KT P6SM BKN035
     FM230400 18009KT 4SM BR SCT150
     FM230800 19007KT 2SM BR SCT150
     FM231600 21010KT P6SM FEW250=



000
FTUS44 KAMA 221700
TAFDHT
TAF
KDHT 221738Z 2218/2318 20015KT P6SM SCT035 BKN090
     FM230000 16008KT P6SM SCT050
     FM230800 VRB05KT 2SM BR SCT150
     FM231600 VRB05KT P6SM FEW250=



000
FTUS44 KAMA 221700
TAFGUY
TAF
KGUY 221738Z 2218/2318 19015KT P6SM BKN040
     FM230000 17008KT P6SM SCT050
     FM230700 20005KT 2SM BR SCT100
     FM231600 16007KT P6SM FEW250=



000
FTUS44 KAMA 221700
TAFAMA
TAF
KAMA 221738Z 2218/2318 19015KT P6SM VCSH SCT008 BKN015
      TEMPO 2218/2219 BKN008
     FM222100 17014KT P6SM BKN035
     FM230400 18009KT 4SM BR SCT150
     FM230800 19007KT 2SM BR SCT150
     FM231600 21010KT P6SM FEW250=



000
FTUS44 KAMA 221700
TAFDHT
TAF
KDHT 221738Z 2218/2318 20015KT P6SM SCT035 BKN090
     FM230000 16008KT P6SM SCT050
     FM230800 VRB05KT 2SM BR SCT150
     FM231600 VRB05KT P6SM FEW250=



000
FTUS44 KAMA 221600 AAC
TAFAMA
TAF AMD
KAMA 221656Z 2217/2312 19015KT P6SM SCT008 BKN150
      TEMPO 2217/2219 BKN008
     FM221900 19015KT P6SM BKN025
     FM222100 19015KT P6SM BKN035
     FM230400 18008KT 2SM BR SCT015=



000
FTUS44 KAMA 221600 AAC
TAFAMA
TAF AMD
KAMA 221656Z 2217/2312 19015KT P6SM SCT008 BKN150
      TEMPO 2217/2219 BKN008
     FM221900 19015KT P6SM BKN025
     FM222100 19015KT P6SM BKN035
     FM230400 18008KT 2SM BR SCT015=



000
FTUS44 KAMA 221400 AAA
TAFDHT
TAF AMD
KDHT 221427Z 2214/2312 20011KT 6SM BR SCT030 OVC150
      TEMPO 2214/2216 3SM BR
     FM221700 20015KT P6SM BKN050
     FM230200 24006KT 2SM BR SCT015=



000
FTUS44 KAMA 221400 AAB
TAFAMA
TAF AMD
KAMA 221419Z 2214/2312 19011KT 2SM SHRA BR OVC040
     FM221630 19015KT P6SM VCSH BKN025
     FM222100 19015KT P6SM BKN040
     FM230400 18008KT 2SM BR SCT015=



000
FTUS44 KAMA 221200 AAA
TAFAMA
TAF AMD
KAMA 221246Z 2213/2312 19011KT P6SM VCSH OVC040
      TEMPO 2213/2215 2SM -SHRA BR BKN030
     FM221800 19016KT P6SM BKN050
     FM230400 18008KT 2SM BR SCT015=



000
FTUS44 KAMA 221100
TAFGUY
TAF
KGUY 221127Z 2212/2312 18010KT P6SM VCSH BKN050
     FM221700 20010KT P6SM VCSH OVC040
     FM230300 24005KT 2SM BR SCT015=



000
FTUS44 KAMA 221100
TAFDHT
TAF
KDHT 221127Z 2212/2312 20011KT 6SM BR VCSH SCT015 OVC040
     FM221700 20015KT P6SM BKN050
     FM230200 24006KT 2SM BR SCT015=



000
FTUS44 KAMA 221100
TAFAMA
TAF
KAMA 221127Z 2212/2312 19011KT P6SM VCSH OVC040
     FM221800 19016KT P6SM BKN050
     FM230400 18008KT 2SM BR SCT015=



000
FTUS44 KAMA 220500
TAFAMA
TAF
KAMA 220520Z 2206/2306 17012KT P6SM BKN100
     FM221200 19012KT P6SM OVC040
     FM221700 20016KT P6SM VCSH OVC035=



000
FTUS44 KAMA 220500
TAFGUY
TAF
KGUY 220520Z 2206/2306 19008KT P6SM BKN100
     FM221000 21015KT P6SM SCT020 OVC080
     FM221700 20010KT P6SM VCSH OVC040=



000
FTUS44 KAMA 220500
TAFDHT
TAF
KDHT 220520Z 2206/2306 20008KT P6SM OVC100
     FM221000 20005KT P6SM OVC015
     FM221700 21012KT P6SM VCSH SCT020 OVC050=



000
FTUS44 KAMA 220500
TAFDHT
TAF
KDHT 220520Z 2206/2306 20008KT P6SM OVC100
     FM221000 20005KT P6SM OVC015
     FM221700 21012KT P6SM VCSH SCT020 OVC050=



000
FTUS44 KAMA 220500
TAFGUY
TAF
KGUY 220520Z 2206/2306 19008KT P6SM BKN100
     FM221000 21015KT P6SM SCT020 OVC080
     FM221700 20010KT P6SM VCSH OVC040=



000
FTUS44 KAMA 220500
TAFAMA
TAF
KAMA 220520Z 2206/2306 17012KT P6SM BKN100
     FM221200 19012KT P6SM OVC040
     FM221700 20016KT P6SM VCSH OVC035=



000
FTUS44 KAMA 220300 AAA
TAFDHT
TAF AMD
KDHT 220339Z 2204/2224 20008KT P6SM BKN100
     FM220600 20005KT P6SM BKN020
     FM221500 21013KT P6SM SCT020 BKN050=



000
FTUS44 KAMA 212300
TAFAMA
TAF
KAMA 212320Z 2200/2224 17015KT P6SM BKN100
     FM221200 19012KT P6SM BKN050
     FM221800 20016KT P6SM VCSH BKN050=



000
FTUS44 KAMA 212300
TAFGUY
TAF
KGUY 212320Z 2200/2224 19016KT P6SM SCT100
     FM220100 19008KT P6SM BKN100
     FM221200 21015KT P6SM SCT020 BKN080
     FM222000 20010KT P6SM VCSH BKN050=



000
FTUS44 KAMA 212300
TAFDHT
TAF
KDHT 212320Z 2200/2224 18014KT P6SM SCT100
     FM220100 20008KT P6SM VCSH BKN100
     FM220600 20005KT P6SM BKN020
     FM221500 21013KT P6SM SCT020 BKN050=



000
FTUS44 KAMA 212300
TAFAMA
TAF
KAMA 212320Z 2200/2224 17015KT P6SM BKN100
     FM221200 19012KT P6SM BKN050
     FM221800 20016KT P6SM VCSH BKN050=



000
FTUS44 KAMA 212300
TAFGUY
TAF
KGUY 212320Z 2200/2224 19016KT P6SM SCT100
     FM220100 19008KT P6SM BKN100
     FM221200 21015KT P6SM SCT020 BKN080
     FM222000 20010KT P6SM VCSH BKN050=



000
FTUS44 KAMA 212300
TAFDHT
TAF
KDHT 212320Z 2200/2224 18014KT P6SM SCT100
     FM220100 20008KT P6SM VCSH BKN100
     FM220600 20005KT P6SM BKN020
     FM221500 21013KT P6SM SCT020 BKN050=



000
FTUS44 KAMA 212100 AAA
TAFAMA
TAF AMD
KAMA 212133Z 2122/2218 17015KT P6SM BKN100
     FM221200 19012KT P6SM BKN050=



000
FTUS44 KAMA 212100 AAA
TAFAMA
TAF AMD
KAMA 212133Z 2122/2218 17015KT P6SM BKN100
     FM221200 19012KT P6SM BKN050=



000
FTUS44 KAMA 211700
TAFDHT
TAF
KDHT 211720Z 2118/2218 20014G23KT P6SM SCT100
     FM220100 20008KT P6SM BKN100
     FM221400 21013KT P6SM BKN080=



000
FTUS44 KAMA 211700
TAFAMA
TAF
KAMA 211720Z 2118/2218 18012KT P6SM BKN100
     FM221200 19012KT P6SM BKN050=



000
FTUS44 KAMA 211700
TAFGUY
TAF
KGUY 211720Z 2118/2218 19016G24KT P6SM SCT100
     FM220100 19008KT P6SM BKN100
     FM221400 21015KT P6SM BKN080=



000
FTUS44 KAMA 211400 AAA
TAFAMA
TAF AMD
KAMA 211406Z 2114/2212 23008KT P6SM BKN050
     FM211700 19013KT P6SM SCT050 BKN250
     FM220000 17010KT P6SM BKN050=



000
FTUS44 KAMA 211400 AAA
TAFDHT
TAF AMD
KDHT 211404Z 2114/2212 22008KT P6SM SCT050
     FM211600 20016KT P6SM SCT050 SCT250
     FM220300 18010KT P6SM SCT050 BKN250=



000
FTUS44 KAMA 211100
TAFAMA
TAF
KAMA 211135Z 2112/2212 VRB04KT P6SM SCT120
     FM211700 19013KT P6SM SCT050 BKN250
     FM220000 17010KT P6SM BKN050=



000
FTUS44 KAMA 211100
TAFGUY
TAF
KGUY 211135Z 2112/2212 VRB05KT P6SM SCT120
      TEMPO 2112/2114 3SM BR SCT005
     FM211600 19015KT P6SM SCT050 SCT250=



000
FTUS44 KAMA 211100
TAFAMA
TAF
KAMA 211135Z 2112/2212 VRB04KT P6SM SCT120
     FM211700 19013KT P6SM SCT050 BKN250
     FM220000 17010KT P6SM BKN050=



000
FTUS44 KAMA 211100
TAFDHT
TAF
KDHT 211135Z 2112/2212 VRB04KT 5SM BR FEW120
     FM211500 20016KT P6SM SCT050 SCT250
     FM220300 18010KT P6SM SCT050 BKN250=



000
FTUS44 KAMA 211100
TAFGUY
TAF
KGUY 211135Z 2112/2212 VRB05KT P6SM SCT120
      TEMPO 2112/2114 3SM BR SCT005
     FM211600 19015KT P6SM SCT050 SCT250=



000
FTUS44 KAMA 211100
TAFDHT
TAF
KDHT 211135Z 2112/2212 VRB04KT 5SM BR FEW120
     FM211500 20016KT P6SM SCT050 SCT250
     FM220300 18010KT P6SM SCT050 BKN250=



000
FTUS44 KAMA 210500
TAFDHT
TAF
KDHT 210520Z 2106/2206 VRB03KT P6SM SKC
     FM210900 VRB04KT 5SM BR SCT010
     FM211500 21015KT P6SM FEW050=



000
FTUS44 KAMA 210500
TAFAMA
TAF
KAMA 210520Z 2106/2206 VRB03KT P6SM SCT100
     FM211700 19013KT P6SM SCT050=



000
FTUS44 KAMA 210500
TAFGUY
TAF
KGUY 210520Z 2106/2206 VRB03KT P6SM SKC
     FM210900 VRB04KT 3SM BR SCT006
     FM211500 19015KT P6SM FEW050=



000
FTUS44 KAMA 202300
TAFDHT
TAF
KDHT 202320Z 2100/2124 09008KT P6SM SKC
     FM210100 VRB03KT P6SM SKC
     FM210900 VRB04KT 5SM BR SCT010
     FM211500 21015KT P6SM FEW050=



000
FTUS44 KAMA 202300
TAFGUY
TAF
KGUY 202320Z 2100/2124 09008KT P6SM SKC
     FM210100 VRB03KT P6SM SKC
     FM210900 VRB04KT 5SM BR SCT010
     FM211500 19015KT P6SM FEW050=



000
FTUS44 KAMA 202300
TAFAMA
TAF
KAMA 202320Z 2100/2124 04008KT P6SM FEW050
     FM210100 VRB03KT P6SM SKC
     FM211700 19013KT P6SM SCT050=



000
FTUS44 KAMA 201700
TAFDHT
TAF
KDHT 201720Z 2018/2118 09008KT P6SM FEW250
     FM210100 VRB03KT P6SM SCT100
     FM211500 20010KT P6SM SCT070=



000
FTUS44 KAMA 201700
TAFGUY
TAF
KGUY 201720Z 2018/2118 09008KT P6SM FEW250
     FM210100 VRB03KT P6SM FEW100
     FM211500 19008KT P6SM FEW070=



000
FTUS44 KAMA 201700
TAFAMA
TAF
KAMA 201720Z 2018/2118 04008KT P6SM SCT250
     FM210100 VRB03KT P6SM SCT100
     FM211500 22008KT P6SM BKN070=



    US Dept of Commerce
    National Oceanic and Atmospheric Administration
    National Weather Service
    1325 East West Highway
    Silver Spring, MD 20910
    Page Author: NWS Internet Services Team
Disclaimer
Information Quality
Credits
Glossary
Privacy Policy
Freedom of Information Act (FOIA)
About Us
Career Opportunities